Time;durP1;ratioP1;P1;durP2;ratioP2;P2;SDS_P1;SDS_P2;PMS_P1;PMS_P2;Temp;Humidity;BMP_temperature;BMP_pressure;BME280_temperature;BME280_humidity;BME280_pressure;Samples;Min_cycle;Max_cycle;Signal;HPM_P1;HPM_P2
2024/01/03 00:01:23;;;;;;;1.20;0.80;;;8.40;99.90;;;;;;4973878;28;20267;-75
2024/01/03 00:03:50;;;;;;;0.87;0.87;;;8.50;99.90;;;;;;4974117;28;20237;-76
2024/01/03 00:06:16;;;;;;;0.77;0.70;;;8.40;99.90;;;;;;4973756;28;20205;-76
2024/01/03 00:08:43;;;;;;;1.63;0.93;;;8.30;99.90;;;;;;4973721;28;20200;-76
2024/01/03 00:11:18;;;;;;;2.73;1.10;;;8.40;99.90;;;;;;4973494;28;20678;-75
2024/01/03 00:14:06;;;;;;;1.13;1.00;;;8.50;99.90;;;;;;4973677;28;20247;-76
2024/01/03 00:16:34;;;;;;;1.87;0.90;;;8.30;99.90;;;;;;4973744;28;20197;-76
2024/01/03 00:19:03;;;;;;;0.80;0.80;;;8.40;99.90;;;;;;4973508;28;20656;-77
2024/01/03 00:21:30;;;;;;;0.83;0.80;;;8.30;99.90;;;;;;4973585;28;20259;-77
2024/01/03 00:24:01;;;;;;;0.93;0.90;;;8.40;99.90;;;;;;4976034;28;20231;-78
2024/01/03 00:26:31;;;;;;;0.97;0.70;;;8.40;99.90;;;;;;4977163;28;20258;-78
2024/01/03 00:28:59;;;;;;;0.87;0.80;;;8.30;99.90;;;;;;4977557;28;20200;-78
2024/01/03 00:31:41;;;;;;;0.90;0.90;;;8.40;99.90;;;;;;4977148;28;20208;-78
2024/01/03 00:34:28;;;;;;;0.80;0.80;;;8.40;99.90;;;;;;4977118;28;20223;-78
2024/01/03 00:36:56;;;;;;;1.13;0.90;;;8.30;99.90;;;;;;4977008;28;20251;-78
2024/01/03 00:39:26;;;;;;;2.23;0.90;;;8.30;99.90;;;;;;4977228;28;20247;-79
2024/01/03 00:41:54;;;;;;;2.10;0.80;;;8.30;99.90;;;;;;4976853;28;20287;-79
2024/01/03 00:44:21;;;;;;;1.23;0.80;;;8.40;99.90;;;;;;4977424;28;20713;-80
2024/01/03 00:46:48;;;;;;;1.13;0.83;;;8.40;99.90;;;;;;4977187;28;20208;-79
2024/01/03 00:49:16;;;;;;;2.07;0.87;;;8.40;99.90;;;;;;4976910;28;20605;-79
2024/01/03 00:51:46;;;;;;;1.20;0.90;;;8.40;99.90;;;;;;4976825;28;20201;-79
2024/01/03 00:54:13;;;;;;;1.00;0.80;;;8.40;99.90;;;;;;4976854;28;20808;-79
2024/01/03 00:56:40;;;;;;;1.40;1.00;;;8.50;99.90;;;;;;4976792;28;20208;-79
2024/01/03 00:59:09;;;;;;;0.97;0.80;;;8.40;99.90;;;;;;4976622;28;20802;-79
2024/01/03 01:01:36;;;;;;;0.70;0.70;;;8.50;99.90;;;;;;4976636;28;20255;-78
2024/01/03 01:04:03;;;;;;;1.00;0.80;;;8.50;99.90;;;;;;4976471;28;20278;-78
2024/01/03 01:06:30;;;;;;;0.83;0.80;;;8.60;99.90;;;;;;4976853;28;20207;-78
2024/01/03 01:08:57;;;;;;;1.07;0.70;;;8.70;99.90;;;;;;4976832;28;20251;-78
2024/01/03 01:11:24;;;;;;;1.00;0.90;;;8.70;99.90;;;;;;4976642;28;20228;-78
2024/01/03 01:13:50;;;;;;;1.23;0.93;;;8.60;99.90;;;;;;4976858;28;20254;-80
2024/01/03 01:16:18;;;;;;;1.23;0.90;;;8.60;99.90;;;;;;4976399;28;20208;-80
2024/01/03 01:18:45;;;;;;;0.80;0.77;;;8.50;99.90;;;;;;4968709;28;20200;-80
2024/01/03 01:21:11;;;;;;;0.60;0.60;;;8.50;99.90;;;;;;4976458;28;20200;-80
2024/01/03 01:23:42;;;;;;;2.20;0.90;;;8.50;99.90;;;;;;4976353;28;20201;-79
2024/01/03 01:26:08;;;;;;;0.90;0.83;;;8.50;99.90;;;;;;4976387;28;20572;-78
2024/01/03 01:28:35;;;;;;;0.80;0.80;;;8.20;99.90;;;;;;4976080;28;20204;-78
2024/01/03 01:31:02;;;;;;;1.43;1.07;;;8.20;99.90;;;;;;4976004;28;20203;-79
2024/01/03 01:33:30;;;;;;;1.10;1.00;;;8.20;99.90;;;;;;4976017;28;20207;-77
2024/01/03 01:35:56;;;;;;;1.63;1.20;;;8.10;99.90;;;;;;4975081;28;20255;-76
2024/01/03 01:38:23;;;;;;;0.90;0.90;;;8.00;99.90;;;;;;4976089;28;20253;-76
2024/01/03 01:40:50;;;;;;;0.70;0.70;;;8.00;99.90;;;;;;4975889;28;20209;-77
2024/01/03 01:43:17;;;;;;;1.80;0.90;;;8.10;99.90;;;;;;4975766;28;20224;-78
2024/01/03 01:45:44;;;;;;;0.70;0.70;;;8.10;99.90;;;;;;4967634;28;20264;-77
2024/01/03 01:48:11;;;;;;;2.30;0.80;;;8.10;99.90;;;;;;4975866;28;20263;-77
2024/01/03 01:50:40;;;;;;;0.83;0.70;;;8.10;99.90;;;;;;4975853;28;20200;-78
2024/01/03 01:53:07;;;;;;;0.70;0.70;;;8.10;99.90;;;;;;4975713;28;20293;-79
2024/01/03 01:55:35;;;;;;;0.73;0.60;;;8.00;99.90;;;;;;4975720;28;20212;-80
2024/01/03 01:58:02;;;;;;;0.63;0.63;;;7.90;99.90;;;;;;4975555;28;20611;-80
2024/01/03 02:00:29;;;;;;;0.50;0.50;;;7.90;99.90;;;;;;4975784;28;20278;-80
2024/01/03 02:02:55;;;;;;;1.23;0.80;;;7.90;99.90;;;;;;4975756;28;20287;-80
2024/01/03 02:05:22;;;;;;;0.97;0.80;;;7.80;99.90;;;;;;4975596;28;20235;-81
2024/01/03 02:07:50;;;;;;;0.83;0.70;;;7.90;99.90;;;;;;4983218;28;20200;-81
2024/01/03 02:10:17;;;;;;;0.77;0.73;;;7.90;99.90;;;;;;4976344;28;20204;-81
2024/01/03 02:12:43;;;;;;;1.00;0.80;;;7.80;99.90;;;;;;4975873;28;20208;-82
2024/01/03 02:15:10;;;;;;;1.00;0.90;;;7.70;99.90;;;;;;4975959;28;20328;-82
2024/01/03 02:17:38;;;;;;;1.00;0.90;;;7.70;99.90;;;;;;4975544;28;20255;-82
2024/01/03 02:20:06;;;;;;;0.93;0.93;;;7.70;99.90;;;;;;4975600;28;20556;-83
2024/01/03 02:22:33;;;;;;;2.50;0.97;;;7.60;99.90;;;;;;4975740;28;20204;-83
2024/01/03 02:25:00;;;;;;;1.40;0.87;;;7.60;99.90;;;;;;4975630;28;20765;-83
2024/01/03 02:27:27;;;;;;;1.60;1.43;;;7.60;99.90;;;;;;4976167;28;20259;-83
2024/01/03 02:29:54;;;;;;;2.23;1.30;;;7.60;99.90;;;;;;4975855;28;20201;-83
2024/01/03 02:32:20;;;;;;;1.73;1.20;;;7.60;99.90;;;;;;4975897;28;20200;-83
2024/01/03 02:34:47;;;;;;;1.10;1.00;;;7.70;99.90;;;;;;4975462;28;20296;-83
2024/01/03 02:37:14;;;;;;;2.83;1.20;;;7.60;99.90;;;;;;4975356;28;20541;-83
2024/01/03 02:39:42;;;;;;;2.03;1.20;;;7.70;99.90;;;;;;4975147;28;20268;-83
2024/01/03 02:42:09;;;;;;;2.70;1.10;;;7.80;99.90;;;;;;4974841;28;20563;-83
2024/01/03 02:44:35;;;;;;;2.70;1.17;;;7.90;99.90;;;;;;4975241;28;20280;-82
2024/01/03 02:47:02;;;;;;;3.80;1.50;;;8.10;99.90;;;;;;4975060;28;20205;-83
2024/01/03 02:49:28;;;;;;;2.73;1.53;;;8.10;99.90;;;;;;4975027;28;20200;-83
2024/01/03 02:51:55;;;;;;;4.67;1.40;;;8.10;99.90;;;;;;4974869;28;20201;-83
2024/01/03 02:54:22;;;;;;;1.70;1.13;;;8.10;99.90;;;;;;4974649;28;20200;-83
2024/01/03 02:56:50;;;;;;;4.23;1.57;;;8.10;99.90;;;;;;4975002;28;20259;-83
2024/01/03 02:59:16;;;;;;;3.80;1.10;;;8.10;99.90;;;;;;4975001;28;20200;-82
2024/01/03 03:01:44;;;;;;;2.50;1.20;;;8.10;99.90;;;;;;4974756;28;20205;-81
2024/01/03 03:04:10;;;;;;;3.17;1.20;;;8.20;99.90;;;;;;4974995;28;20648;-82
2024/01/03 03:06:37;;;;;;;2.80;1.30;;;8.10;99.90;;;;;;4974638;28;20545;-82
2024/01/03 03:09:04;;;;;;;3.10;1.33;;;8.20;99.90;;;;;;4974641;28;20732;-82
2024/01/03 03:11:31;;;;;;;3.13;1.03;;;8.30;99.90;;;;;;4975070;28;20334;-82
2024/01/03 03:13:59;;;;;;;2.97;1.40;;;8.30;99.90;;;;;;4974782;28;20199;-82
2024/01/03 03:16:26;;;;;;;2.13;1.20;;;8.30;99.90;;;;;;4957252;28;20675;-82
2024/01/03 03:18:53;;;;;;;3.57;1.50;;;8.30;99.90;;;;;;4974729;28;20296;-82
2024/01/03 03:21:19;;;;;;;4.20;1.63;;;8.30;99.90;;;;;;4974510;28;20200;-82
2024/01/03 03:23:46;;;;;;;3.03;1.47;;;8.40;99.90;;;;;;4974413;28;20250;-82
2024/01/03 03:26:12;;;;;;;4.67;1.40;;;8.30;99.90;;;;;;4974656;28;20285;-81
2024/01/03 03:28:39;;;;;;;2.80;1.20;;;8.40;99.90;;;;;;4974647;28;20232;-82
2024/01/03 03:31:07;;;;;;;2.30;1.20;;;8.30;99.90;;;;;;4974401;28;20203;-82
2024/01/03 03:33:34;;;;;;;2.83;1.30;;;8.40;99.90;;;;;;4974578;28;20227;-82
2024/01/03 03:36:00;;;;;;;5.60;1.20;;;8.30;99.90;;;;;;4974498;28;20206;-81
2024/01/03 03:38:27;;;;;;;1.70;1.00;;;8.30;99.90;;;;;;4974495;28;20260;-81
2024/01/03 03:40:54;;;;;;;1.37;0.97;;;8.30;99.90;;;;;;4974304;28;20204;-81
2024/01/03 03:43:20;;;;;;;1.20;1.00;;;8.30;99.90;;;;;;4974133;28;20286;-81
2024/01/03 03:45:47;;;;;;;4.00;1.10;;;8.20;99.90;;;;;;4973803;28;20224;-81
2024/01/03 03:48:15;;;;;;;3.23;1.07;;;8.20;99.90;;;;;;4974162;28;20204;-80
2024/01/03 03:50:41;;;;;;;2.67;1.10;;;8.20;99.90;;;;;;4973896;28;20262;-79
2024/01/03 03:53:10;;;;;;;3.43;1.43;;;8.20;99.90;;;;;;4973893;28;20208;-79
2024/01/03 03:55:41;;;;;;;1.47;1.17;;;8.20;99.90;;;;;;4974153;28;20224;-81
2024/01/03 03:58:08;;;;;;;2.87;1.10;;;8.20;99.90;;;;;;4975433;28;20206;-81
2024/01/03 04:00:35;;;;;;;2.83;1.30;;;8.10;99.90;;;;;;4978003;28;20207;-82
2024/01/03 04:03:05;;;;;;;2.63;1.43;;;8.00;99.90;;;;;;4977745;28;20271;-82
2024/01/03 04:05:34;;;;;;;5.67;1.60;;;8.00;99.90;;;;;;4979918;28;20706;-80
2024/01/03 04:08:00;;;;;;;6.90;1.70;;;7.90;99.90;;;;;;4994631;28;20204;-79
2024/01/03 04:10:27;;;;;;;5.17;1.57;;;7.90;99.90;;;;;;4993067;28;20676;-79
2024/01/03 04:12:55;;;;;;;4.83;1.40;;;7.90;99.90;;;;;;4980822;28;20205;-79
2024/01/03 04:15:21;;;;;;;12.97;1.47;;;7.90;99.90;;;;;;4977594;28;20668;-80
2024/01/03 04:17:48;;;;;;;2.53;1.10;;;7.90;99.90;;;;;;4977495;28;20209;-80
2024/01/03 04:20:15;;;;;;;1.57;1.23;;;8.00;99.90;;;;;;4977605;28;20687;-79
2024/01/03 04:22:45;;;;;;;2.10;1.20;;;8.00;99.90;;;;;;4977504;28;20202;-79
2024/01/03 04:25:12;;;;;;;1.87;1.23;;;8.00;99.90;;;;;;4977227;28;20692;-78
2024/01/03 04:27:39;;;;;;;3.00;1.40;;;8.10;99.90;;;;;;4977141;28;20212;-78
2024/01/03 04:30:06;;;;;;;2.97;1.40;;;8.10;99.90;;;;;;4977170;28;20683;-78
2024/01/03 04:32:33;;;;;;;2.60;1.27;;;8.30;99.90;;;;;;4977354;28;20204;-78
2024/01/03 04:35:00;;;;;;;2.70;1.20;;;8.30;99.90;;;;;;4977259;28;20560;-77
2024/01/03 04:37:28;;;;;;;2.07;1.40;;;8.30;99.90;;;;;;4977269;28;20204;-78
2024/01/03 04:39:56;;;;;;;3.67;1.50;;;8.40;99.90;;;;;;4977007;28;20658;-78
2024/01/03 04:42:22;;;;;;;2.33;1.30;;;8.40;99.90;;;;;;4976712;28;20295;-77
2024/01/03 04:44:49;;;;;;;1.67;0.80;;;8.40;99.90;;;;;;4976921;28;20205;-78
2024/01/03 04:47:16;;;;;;;1.57;1.00;;;8.40;99.90;;;;;;4977269;28;20248;-78
2024/01/03 04:49:42;;;;;;;2.03;1.20;;;8.40;99.90;;;;;;4977072;28;20235;-77
2024/01/03 04:52:11;;;;;;;2.40;1.20;;;8.40;99.90;;;;;;4976941;28;20263;-78
2024/01/03 04:54:38;;;;;;;1.43;1.10;;;8.40;99.90;;;;;;4976887;28;20224;-78
2024/01/03 04:57:06;;;;;;;2.83;1.00;;;8.40;99.90;;;;;;4976782;28;20216;-78
2024/01/03 04:59:33;;;;;;;2.67;1.30;;;8.40;99.90;;;;;;4976850;28;20605;-79
2024/01/03 05:01:59;;;;;;;2.13;1.00;;;8.30;99.90;;;;;;4976787;28;20602;-78
2024/01/03 05:04:26;;;;;;;3.03;1.20;;;8.30;99.90;;;;;;4976730;28;20621;-78
2024/01/03 05:06:52;;;;;;;4.03;1.10;;;8.20;99.90;;;;;;4976630;28;20287;-79
2024/01/03 05:09:19;;;;;;;1.97;1.10;;;8.20;99.90;;;;;;4976647;28;20247;-81
2024/01/03 05:11:46;;;;;;;1.10;0.97;;;8.10;99.90;;;;;;4976541;28;20257;-81
2024/01/03 05:14:14;;;;;;;1.43;1.10;;;7.90;99.90;;;;;;4976733;28;20196;-80
2024/01/03 05:16:41;;;;;;;6.40;1.40;;;7.80;99.90;;;;;;4976531;28;20211;-81
2024/01/03 05:19:08;;;;;;;3.30;1.10;;;7.90;99.90;;;;;;4976590;28;20204;-81
2024/01/03 05:21:34;;;;;;;3.37;1.30;;;7.90;99.90;;;;;;4976469;28;20206;-81
2024/01/03 05:24:01;;;;;;;2.17;1.20;;;8.00;99.90;;;;;;4976482;28;20255;-82
2024/01/03 05:26:27;;;;;;;1.70;1.10;;;8.10;99.90;;;;;;4976316;28;20224;-83
2024/01/03 05:28:54;;;;;;;2.03;1.03;;;8.10;99.90;;;;;;4977335;28;20200;-85
2024/01/03 05:31:23;;;;;;;1.60;1.20;;;8.20;99.90;;;;;;4977711;28;20266;-85
2024/01/03 05:33:50;;;;;;;2.77;1.30;;;8.30;99.90;;;;;;4977857;28;20723;-85
2024/01/03 05:36:16;;;;;;;3.03;1.20;;;8.20;99.90;;;;;;4960232;28;20204;-85
2024/01/03 05:38:43;;;;;;;2.83;1.20;;;8.20;99.90;;;;;;4977857;28;20251;-84
2024/01/03 05:41:11;;;;;;;2.73;1.13;;;8.30;99.90;;;;;;4977598;28;20204;-84
2024/01/03 05:43:37;;;;;;;5.23;1.37;;;8.20;99.90;;;;;;4984763;28;20254;-84
2024/01/03 05:46:04;;;;;;;2.87;1.23;;;8.30;99.90;;;;;;4977796;28;20684;-84
2024/01/03 05:48:32;;;;;;;3.07;1.10;;;8.30;99.90;;;;;;4959449;28;20287;-83
2024/01/03 05:50:59;;;;;;;3.30;1.10;;;8.20;99.90;;;;;;4964095;28;20252;-84
2024/01/03 05:53:28;;;;;;;4.83;1.53;;;8.20;99.90;;;;;;4939708;29;20201;-83
2024/01/03 05:55:54;;;;;;;4.80;1.50;;;8.30;99.90;;;;;;4957022;29;20271;-83
2024/01/03 05:58:21;;;;;;;5.23;1.40;;;8.40;99.90;;;;;;4957239;29;20201;-83
2024/01/03 06:00:48;;;;;;;4.73;1.60;;;8.40;99.90;;;;;;4956913;29;20200;-82
2024/01/03 06:03:14;;;;;;;4.53;1.50;;;8.40;99.90;;;;;;4956746;29;20201;-83
2024/01/03 06:05:43;;;;;;;2.97;1.17;;;8.50;99.90;;;;;;4956572;29;20272;-82
2024/01/03 06:08:10;;;;;;;5.57;1.70;;;8.60;99.90;;;;;;4956416;29;20297;-83
2024/01/03 06:10:37;;;;;;;3.17;1.20;;;8.40;99.90;;;;;;4956616;29;20197;-83
2024/01/03 06:13:04;;;;;;;5.03;1.50;;;8.50;99.90;;;;;;4956972;29;20248;-84
2024/01/03 06:15:31;;;;;;;3.30;1.33;;;8.40;99.90;;;;;;4956362;29;20212;-83
2024/01/03 06:17:58;;;;;;;11.67;5.33;;;8.40;99.90;;;;;;4956462;29;20201;-83
2024/01/03 06:20:24;;;;;;;8.30;4.27;;;8.50;99.90;;;;;;4955807;28;20547;-82
2024/01/03 06:22:52;;;;;;;3.30;1.43;;;8.40;99.90;;;;;;4955919;29;20590;-82
2024/01/03 06:25:19;;;;;;;5.43;2.10;;;8.40;99.90;;;;;;4956163;29;20205;-86
2024/01/03 06:27:46;;;;;;;4.70;1.90;;;8.30;99.90;;;;;;4957005;29;20201;-85
2024/01/03 06:30:13;;;;;;;4.43;1.90;;;8.10;99.90;;;;;;4956467;29;20213;-84
2024/01/03 06:32:40;;;;;;;3.53;1.53;;;8.00;99.90;;;;;;4956473;29;20205;-81
2024/01/03 06:35:07;;;;;;;5.30;2.17;;;8.00;99.90;;;;;;4955437;29;20208;-81
2024/01/03 06:37:34;;;;;;;5.17;1.70;;;7.80;99.90;;;;;;4955575;29;20216;-78
2024/01/03 06:40:01;;;;;;;7.40;2.07;;;7.50;99.90;;;;;;4955768;29;20253;-78
2024/01/03 06:42:28;;;;;;;8.30;2.10;;;7.50;99.90;;;;;;4955251;29;20637;-76
2024/01/03 06:44:55;;;;;;;3.33;1.50;;;7.60;99.90;;;;;;4955358;29;20720;-77
2024/01/03 06:47:21;;;;;;;7.20;2.10;;;7.50;99.90;;;;;;4955238;29;20225;-77
2024/01/03 06:49:48;;;;;;;7.40;1.90;;;7.50;99.90;;;;;;4955230;29;20201;-77
2024/01/03 06:52:15;;;;;;;5.97;1.70;;;7.40;99.90;;;;;;4955317;29;20202;-77
2024/01/03 06:54:41;;;;;;;3.83;1.50;;;7.30;99.90;;;;;;4955157;29;20598;-76
2024/01/03 06:57:09;;;;;;;7.90;1.63;;;7.30;99.90;;;;;;4955293;29;20208;-76
2024/01/03 06:59:36;;;;;;;7.13;2.00;;;7.20;99.90;;;;;;4955138;29;20196;-77
2024/01/03 07:02:03;;;;;;;6.73;1.90;;;7.10;99.90;;;;;;4955197;29;20289;-76
2024/01/03 07:04:29;;;;;;;5.90;2.03;;;7.20;99.90;;;;;;4955103;29;20240;-76
2024/01/03 07:06:57;;;;;;;6.17;2.20;;;7.20;99.90;;;;;;4955167;29;20295;-76
2024/01/03 07:09:23;;;;;;;6.70;2.50;;;7.20;99.90;;;;;;4955189;29;20209;-77
2024/01/03 07:11:50;;;;;;;6.33;2.57;;;7.10;99.90;;;;;;4955128;29;20267;-77
2024/01/03 07:14:18;;;;;;;6.33;2.00;;;7.10;99.90;;;;;;4954948;29;20260;-77
2024/01/03 07:16:44;;;;;;;6.37;2.03;;;7.10;99.90;;;;;;4954826;29;20201;-77
2024/01/03 07:19:12;;;;;;;8.07;2.20;;;7.10;99.90;;;;;;4955081;29;20280;-78
2024/01/03 07:21:38;;;;;;;6.07;2.10;;;7.10;99.90;;;;;;4955238;29;20251;-78
2024/01/03 07:24:05;;;;;;;7.97;2.30;;;7.30;99.90;;;;;;4955500;29;20260;-78
2024/01/03 07:26:32;;;;;;;8.30;2.23;;;7.40;99.90;;;;;;4954879;29;20221;-77
2024/01/03 07:28:59;;;;;;;6.30;2.03;;;7.40;99.90;;;;;;4954937;29;20264;-78
2024/01/03 07:31:27;;;;;;;10.27;2.33;;;7.30;99.90;;;;;;4954738;28;20715;-78
2024/01/03 07:33:53;;;;;;;5.67;1.97;;;7.30;99.90;;;;;;4954137;29;20233;-79
2024/01/03 07:36:20;;;;;;;9.93;2.70;;;7.30;99.90;;;;;;4954964;29;20260;-79
2024/01/03 07:38:47;;;;;;;8.47;3.50;;;7.40;99.90;;;;;;4954795;29;20201;-79
2024/01/03 07:41:18;;;;;;;6.30;2.37;;;7.40;99.90;;;;;;4954827;29;20204;-80
2024/01/03 07:43:45;;;;;;;8.77;2.07;;;7.50;99.90;;;;;;4946617;29;20701;-81
2024/01/03 07:46:11;;;;;;;6.50;1.97;;;7.60;99.90;;;;;;4954700;29;20296;-81
2024/01/03 07:48:39;;;;;;;7.97;2.27;;;7.50;99.90;;;;;;4954803;29;20207;-81
2024/01/03 07:51:06;;;;;;;9.50;2.37;;;7.40;99.90;;;;;;4954766;29;20212;-80
2024/01/03 07:53:32;;;;;;;8.47;2.27;;;7.40;99.90;;;;;;4954552;29;20641;-80
2024/01/03 07:55:59;;;;;;;9.80;4.67;;;7.40;99.90;;;;;;4954622;29;20206;-80
2024/01/03 07:58:26;;;;;;;9.00;2.90;;;7.40;99.90;;;;;;4954494;29;20201;-81
2024/01/03 08:00:52;;;;;;;6.87;2.50;;;7.40;99.90;;;;;;4954835;29;20206;-80
2024/01/03 08:03:19;;;;;;;5.33;2.17;;;7.50;99.90;;;;;;4954677;29;20234;-79
2024/01/03 08:05:47;;;;;;;8.30;2.43;;;7.50;99.90;;;;;;4954796;29;20297;-79
2024/01/03 08:08:14;;;;;;;8.40;2.13;;;7.50;99.90;;;;;;4954502;29;20753;-79
2024/01/03 08:10:41;;;;;;;6.43;2.57;;;7.40;99.90;;;;;;4954245;29;20252;-79
2024/01/03 08:13:07;;;;;;;10.13;2.13;;;7.40;99.90;;;;;;4954115;29;20205;-79
2024/01/03 08:15:34;;;;;;;6.60;2.17;;;7.50;99.90;;;;;;4954518;29;20201;-79
2024/01/03 08:18:01;;;;;;;6.07;1.83;;;7.60;99.90;;;;;;4954402;29;20662;-78
2024/01/03 08:20:27;;;;;;;4.30;1.60;;;7.60;99.90;;;;;;4954431;29;20207;-78
2024/01/03 08:22:55;;;;;;;3.10;1.70;;;7.60;99.90;;;;;;4954319;29;20279;-79
2024/01/03 08:25:23;;;;;;;4.90;1.73;;;7.70;99.90;;;;;;4954217;29;20205;-78
2024/01/03 08:27:50;;;;;;;3.77;1.67;;;7.60;99.90;;;;;;4954106;29;20288;-78
2024/01/03 08:30:17;;;;;;;3.93;2.47;;;7.70;99.90;;;;;;4954430;29;20201;-78
2024/01/03 08:32:44;;;;;;;8.33;3.70;;;7.80;99.90;;;;;;4954165;29;20205;-78
2024/01/03 08:35:11;;;;;;;5.83;1.77;;;7.90;99.90;;;;;;4954234;29;20208;-79
2024/01/03 08:37:37;;;;;;;3.57;1.73;;;8.00;99.90;;;;;;4953961;29;20202;-79
2024/01/03 08:40:08;;;;;;;4.33;2.03;;;8.00;99.90;;;;;;4954064;29;20248;-77
2024/01/03 08:42:35;;;;;;;4.57;1.80;;;8.00;99.90;;;;;;4953865;29;20241;-79
2024/01/03 08:45:02;;;;;;;8.20;1.80;;;8.00;99.90;;;;;;4956642;28;20224;-78
2024/01/03 08:47:29;;;;;;;7.70;2.63;;;8.10;99.90;;;;;;4957344;29;20284;-78
2024/01/03 08:49:55;;;;;;;4.77;1.73;;;8.20;99.90;;;;;;4957507;29;20209;-78
2024/01/03 08:52:22;;;;;;;4.17;1.50;;;8.30;99.90;;;;;;4957344;29;20201;-78
2024/01/03 08:54:49;;;;;;;4.00;1.93;;;8.30;99.90;;;;;;4957341;29;20204;-78
2024/01/03 08:57:16;;;;;;;6.40;2.30;;;8.30;99.90;;;;;;4957353;29;20205;-77
2024/01/03 08:59:43;;;;;;;3.43;1.70;;;8.40;99.90;;;;;;4957494;29;20197;-77
2024/01/03 09:02:10;;;;;;;5.37;1.50;;;8.60;99.90;;;;;;4957183;29;20605;-76
2024/01/03 09:04:37;;;;;;;3.63;1.80;;;8.80;99.90;;;;;;4957127;29;20208;-76
2024/01/03 09:07:04;;;;;;;4.00;1.53;;;8.90;99.90;;;;;;4956920;29;20225;-75
2024/01/03 09:09:30;;;;;;;2.80;1.80;;;9.00;99.90;;;;;;4956815;29;20252;-75
2024/01/03 09:11:57;;;;;;;4.73;2.00;;;9.10;99.90;;;;;;4957015;29;20661;-74
2024/01/03 09:14:25;;;;;;;5.33;2.33;;;9.20;99.90;;;;;;4957285;29;20256;-75
2024/01/03 09:16:52;;;;;;;5.13;1.70;;;9.30;99.90;;;;;;4957056;29;20201;-74
2024/01/03 09:19:18;;;;;;;3.40;1.50;;;9.40;99.90;;;;;;4957599;29;20207;-74
2024/01/03 09:21:46;;;;;;;2.20;1.47;;;9.20;99.90;;;;;;4956808;29;20205;-74
2024/01/03 09:24:12;;;;;;;3.53;1.70;;;9.20;99.90;;;;;;4957091;29;20296;-74
2024/01/03 09:26:39;;;;;;;1.97;1.53;;;9.60;99.90;;;;;;4956910;29;20236;-74
2024/01/03 09:29:07;;;;;;;1.90;1.30;;;9.60;99.90;;;;;;4956744;29;20209;-74
2024/01/03 09:31:41;;;;;;;3.60;1.27;;;9.30;99.90;;;;;;4956794;29;20236;-74
2024/01/03 09:34:07;;;;;;;4.30;2.80;;;9.20;99.90;;;;;;4956821;29;20204;-74
2024/01/03 09:36:34;;;;;;;5.77;4.03;;;9.00;99.90;;;;;;4956678;29;20205;-74
2024/01/03 09:39:01;;;;;;;15.93;10.20;;;8.90;99.90;;;;;;4956575;29;20658;-73
2024/01/03 09:41:28;;;;;;;10.23;5.83;;;8.90;99.90;;;;;;4956640;29;20252;-73
2024/01/03 09:43:56;;;;;;;6.17;4.07;;;9.00;99.90;;;;;;4956124;29;20704;-73
2024/01/03 09:46:23;;;;;;;2.03;1.30;;;8.90;99.90;;;;;;4956402;29;20296;-74
2024/01/03 09:48:51;;;;;;;3.63;1.63;;;8.90;99.90;;;;;;4956372;29;20216;-76
2024/01/03 09:51:19;;;;;;;4.10;1.50;;;8.60;99.90;;;;;;4956281;29;20204;-76
2024/01/03 09:53:46;;;;;;;4.50;1.60;;;8.20;99.90;;;;;;4956372;29;20301;-77
2024/01/03 09:56:13;;;;;;;2.63;1.80;;;8.30;99.90;;;;;;4955556;28;20260;-77
2024/01/03 09:58:40;;;;;;;3.27;2.23;;;8.40;99.90;;;;;;4956391;29;20576;-79
2024/01/03 10:01:08;;;;;;;3.17;1.50;;;8.60;99.90;;;;;;4956094;29;20197;-79
2024/01/03 10:03:35;;;;;;;3.83;1.87;;;8.60;99.90;;;;;;4956241;29;20658;-75
2024/01/03 10:06:09;;;;;;;5.53;1.63;;;8.40;99.90;;;;;;4956531;29;20201;-80
2024/01/03 10:08:36;;;;;;;3.13;1.43;;;8.70;99.90;;;;;;4955916;29;20319;-80
2024/01/03 10:11:11;;;;;;;2.77;1.50;;;8.70;99.90;;;;;;4955895;29;20208;-79
2024/01/03 10:13:41;;;;;;;2.33;1.20;;;8.60;99.90;;;;;;4956199;29;20263;-78
2024/01/03 10:16:08;;;;;;;3.73;1.43;;;8.60;99.90;;;;;;4955939;29;20201;-79
2024/01/03 10:18:34;;;;;;;4.47;2.07;;;8.60;99.90;;;;;;4955996;29;20208;-79
2024/01/03 10:21:13;;;;;;;5.13;1.90;;;8.80;99.90;;;;;;4956105;29;20260;-79
2024/01/03 10:23:40;;;;;;;3.13;1.67;;;9.00;99.90;;;;;;4956054;29;20291;-79
2024/01/03 10:26:07;;;;;;;4.77;1.90;;;9.10;99.90;;;;;;4955817;29;20263;-78
2024/01/03 10:28:34;;;;;;;4.27;1.50;;;9.20;99.90;;;;;;4955683;29;20580;-78
2024/01/03 10:31:04;;;;;;;2.50;1.43;;;9.30;99.90;;;;;;4955971;29;20228;-78
2024/01/03 10:33:31;;;;;;;2.67;1.40;;;9.40;99.90;;;;;;4955749;29;20205;-77
2024/01/03 10:35:58;;;;;;;2.47;1.50;;;9.30;99.90;;;;;;4955742;29;20201;-77
2024/01/03 10:38:28;;;;;;;2.27;1.30;;;9.40;99.90;;;;;;4955613;29;20252;-77
2024/01/03 10:40:54;;;;;;;2.37;1.43;;;9.50;99.90;;;;;;4955420;29;20248;-76
2024/01/03 10:43:22;;;;;;;3.13;1.27;;;9.70;99.90;;;;;;4955441;29;20225;-76
2024/01/03 10:45:49;;;;;;;1.87;1.20;;;9.70;99.90;;;;;;4955597;29;20201;-75
2024/01/03 10:48:15;;;;;;;4.93;1.93;;;9.60;99.90;;;;;;4955266;29;20700;-75
2024/01/03 10:50:43;;;;;;;3.77;1.40;;;9.50;99.90;;;;;;4955346;29;20205;-74
2024/01/03 10:53:11;;;;;;;1.53;1.40;;;9.50;99.90;;;;;;4955378;29;20291;-74
2024/01/03 10:55:40;;;;;;;4.30;1.20;;;9.50;99.90;;;;;;4955140;29;20205;-75
2024/01/03 10:58:13;;;;;;;4.40;1.60;;;9.40;99.90;;;;;;4955419;29;20207;-77
2024/01/03 11:00:51;;;;;;;5.80;1.43;;;8.80;99.90;;;;;;4957291;29;20256;-77
2024/01/03 11:03:24;;;;;;;2.20;1.47;;;8.50;99.90;;;;;;4955292;29;20259;-77
2024/01/03 11:06:01;;;;;;;2.87;1.40;;;8.30;99.90;;;;;;4955353;29;20650;-77
2024/01/03 11:08:35;;;;;;;2.00;1.43;;;8.40;99.90;;;;;;4954917;28;20608;-78
2024/01/03 11:11:04;;;;;;;4.30;0.90;;;8.70;99.90;;;;;;4955144;29;20208;-77
2024/01/03 11:13:32;;;;;;;2.50;1.20;;;9.00;99.90;;;;;;4955035;29;20204;-77
2024/01/03 11:15:59;;;;;;;2.33;1.13;;;9.10;99.90;;;;;;4955113;29;20197;-77
2024/01/03 11:18:49;;;;;;;2.13;1.30;;;8.90;99.90;;;;;;4954897;29;20205;-78
2024/01/03 11:21:50;;;;;;;3.20;1.20;;;8.70;99.90;;;;;;4955130;29;20208;-79
2024/01/03 11:24:53;;;;;;;3.13;1.27;;;8.60;99.90;;;;;;4876962;29;20215;-78
2024/01/03 11:27:28;;;;;;;1.10;1.00;;;8.70;99.90;;;;;;4951601;29;20228;-77
2024/01/03 11:29:54;;;;;;;1.60;1.20;;;8.80;99.90;;;;;;4954873;29;20284;-77
2024/01/03 11:32:31;;;;;;;1.47;1.20;;;8.60;99.90;;;;;;4954597;29;20309;-76
2024/01/03 11:34:58;;;;;;;2.17;1.20;;;8.70;99.90;;;;;;4954628;29;20546;-75
2024/01/03 11:37:36;;;;;;;2.40;1.00;;;8.60;99.90;;;;;;4954607;29;20264;-76
2024/01/03 11:40:06;;;;;;;3.20;1.30;;;8.50;99.90;;;;;;4954684;29;20248;-77
2024/01/03 11:42:37;;;;;;;2.60;1.63;;;8.30;99.90;;;;;;4954355;29;20763;-77
2024/01/03 11:45:06;;;;;;;4.60;1.33;;;8.30;99.90;;;;;;4954764;29;20211;-81
2024/01/03 11:47:34;;;;;;;1.87;1.23;;;8.20;99.90;;;;;;4954628;29;20276;-80
2024/01/03 11:50:04;;;;;;;1.20;1.10;;;8.10;99.90;;;;;;4955202;29;20209;-80
2024/01/03 11:52:33;;;;;;;5.13;2.77;;;8.20;99.90;;;;;;4956068;29;20652;-81
2024/01/03 11:55:10;;;;;;;5.47;1.90;;;8.20;99.90;;;;;;4958005;29;20197;-80
2024/01/03 11:57:41;;;;;;;3.37;1.27;;;8.00;99.90;;;;;;4964346;29;20263;-82
2024/01/03 12:00:09;;;;;;;5.33;2.03;;;7.80;99.90;;;;;;4955743;29;20239;-87
2024/01/03 12:02:35;;;;;;;4.57;2.00;;;7.50;99.90;;;;;;4956039;29;20239;-87
2024/01/03 12:05:04;;;;;;;3.57;1.50;;;7.30;99.90;;;;;;4955795;29;20201;-87
2024/01/03 12:07:32;;;;;;;2.43;1.90;;;7.20;99.90;;;;;;4955914;29;20355;-86
2024/01/03 12:10:00;;;;;;;3.73;1.53;;;7.20;99.90;;;;;;4955733;29;20208;-83
2024/01/03 12:12:27;;;;;;;1.60;1.40;;;7.30;99.90;;;;;;4955922;29;20268;-85
2024/01/03 12:14:56;;;;;;;3.37;1.47;;;7.30;99.90;;;;;;4955016;29;20260;-82
2024/01/03 12:17:30;;;;;;;4.33;1.80;;;7.20;99.90;;;;;;4955035;29;20252;-84
2024/01/03 12:20:07;;;;;;;2.80;1.53;;;7.30;99.90;;;;;;4957067;28;20201;-84
2024/01/03 12:22:34;;;;;;;3.57;1.60;;;7.30;99.90;;;;;;4957293;29;20325;-87
2024/01/03 12:25:01;;;;;;;4.63;1.77;;;7.30;99.90;;;;;;4957661;29;20253;-82
2024/01/03 12:27:27;;;;;;;3.50;1.70;;;7.30;99.90;;;;;;4957490;29;20205;-84
2024/01/03 12:30:15;;;;;;;7.67;2.00;;;7.30;99.90;;;;;;4958290;29;20204;-87
2024/01/03 12:32:42;;;;;;;2.47;1.70;;;7.40;99.90;;;;;;4958783;29;20723;-88
2024/01/03 12:35:09;;;;;;;6.00;1.57;;;7.40;99.90;;;;;;4958935;29;20212;-87
2024/01/03 12:37:36;;;;;;;3.77;1.63;;;7.40;99.90;;;;;;4957910;29;20205;-81
2024/01/03 12:40:03;;;;;;;1.90;1.50;;;7.40;99.90;;;;;;4956801;29;20213;-81
2024/01/03 12:42:29;;;;;;;4.67;2.00;;;7.50;99.90;;;;;;4955874;29;20229;-80
2024/01/03 12:44:56;;;;;;;3.80;1.40;;;7.60;99.90;;;;;;4956789;29;20201;-80
2024/01/03 12:47:24;;;;;;;3.73;1.50;;;7.60;99.90;;;;;;4956498;28;20622;-80
2024/01/03 12:49:52;;;;;;;3.73;1.50;;;7.60;99.90;;;;;;4956404;29;20201;-81
2024/01/03 12:52:27;;;;;;;5.23;2.00;;;7.70;99.90;;;;;;4956343;28;20297;-80
2024/01/03 12:54:54;;;;;;;2.33;1.67;;;7.70;99.90;;;;;;4956535;29;20298;-81
2024/01/03 12:57:21;;;;;;;8.60;2.00;;;7.80;99.90;;;;;;4956722;28;20224;-81
2024/01/03 12:59:49;;;;;;;5.07;1.70;;;7.70;99.90;;;;;;4956268;29;20236;-81
2024/01/03 13:02:16;;;;;;;5.40;1.97;;;7.90;99.90;;;;;;4965942;28;20226;-81